createdAt,value
2023-05-09T00:00:45.069Z,3.15
2023-05-09T00:05:02.905Z,3.22
2023-05-09T00:09:19.309Z,3.12
2023-05-09T00:13:36.039Z,3.30
2023-05-09T00:17:53.290Z,3.47
2023-05-09T00:22:09.645Z,3.35
2023-05-09T00:26:26.611Z,3.75
2023-05-09T00:30:42.897Z,3.75
2023-05-09T00:34:59.460Z,3.45
2023-05-09T00:39:15.804Z,3.92
2023-05-09T00:43:32.278Z,3.58
2023-05-09T00:47:48.609Z,3.75
2023-05-09T00:52:05.561Z,3.72
2023-05-09T00:56:22.296Z,3.60
2023-05-09T01:00:38.633Z,3.67
2023-05-09T01:04:54.897Z,3.70
2023-05-09T01:09:40.532Z,3.30
2023-05-09T01:14:15.099Z,3.55
2023-05-09T01:18:50.225Z,3.22
2023-05-09T01:23:27.649Z,3.58
2023-05-09T01:28:07.965Z,3.42
2023-05-09T01:32:27.141Z,3.40
2023-05-09T01:36:44.573Z,4.03
2023-05-09T01:41:02.625Z,3.50
2023-05-09T01:45:20.176Z,3.95
2023-05-09T01:49:38.066Z,3.58
2023-05-09T01:53:55.937Z,3.55
2023-05-09T01:58:12.499Z,3.65
2023-05-09T02:02:29.433Z,3.62
2023-05-09T02:06:46.445Z,3.40
2023-05-09T02:11:02.831Z,3.17
2023-05-09T02:15:19.311Z,3.97
2023-05-09T02:19:36.442Z,3.22
2023-05-09T02:23:52.703Z,3.55
2023-05-09T02:28:10.422Z,3.62
2023-05-09T02:32:29.293Z,3.78
2023-05-09T02:36:45.968Z,3.78
2023-05-09T02:41:02.195Z,3.28
2023-05-09T02:45:18.509Z,3.75
2023-05-09T02:49:35.302Z,3.20
2023-05-09T02:53:51.632Z,4.00
2023-05-09T02:58:14.374Z,3.62
2023-05-09T03:02:31.463Z,3.47
2023-05-09T03:06:47.856Z,3.75
2023-05-09T03:11:04.163Z,3.72
2023-05-09T03:15:21.929Z,3.62
2023-05-09T03:19:38.212Z,3.90
2023-05-09T03:23:54.545Z,3.80
2023-05-09T03:28:10.978Z,3.83
2023-05-09T03:32:28.028Z,3.75
2023-05-09T03:36:44.870Z,3.70
2023-05-09T03:41:01.198Z,3.53
2023-05-09T03:45:17.544Z,3.65
2023-05-09T03:49:33.803Z,4.07
2023-05-09T03:53:50.267Z,4.10
2023-05-09T03:58:06.737Z,4.32
2023-05-09T04:02:23.585Z,3.80
2023-05-09T04:06:39.953Z,3.72
2023-05-09T04:10:56.228Z,3.50
2023-05-09T04:15:12.809Z,4.15
2023-05-09T04:19:29.228Z,3.65
2023-05-09T04:23:45.748Z,3.95
2023-05-09T04:28:02.388Z,3.80
2023-05-09T04:32:21.105Z,4.00
2023-05-09T04:36:37.436Z,4.07
2023-05-09T04:40:53.790Z,4.05
2023-05-09T04:45:12.049Z,4.10
2023-05-09T04:49:28.428Z,4.25
2023-05-09T04:53:45.026Z,3.85
2023-05-09T04:58:01.305Z,3.90
2023-05-09T05:02:17.730Z,4.05
2023-05-09T05:06:34.010Z,5.00
2023-05-09T05:10:51.291Z,3.67
2023-05-09T05:15:07.876Z,4.40
2023-05-09T05:19:24.130Z,3.72
2023-05-09T05:23:40.466Z,3.87
2023-05-09T05:27:56.745Z,3.50
2023-05-09T05:32:13.099Z,4.12
2023-05-09T05:36:29.472Z,3.80
2023-05-09T05:40:45.923Z,3.92
2023-05-09T05:45:05.337Z,3.80
2023-05-09T05:49:21.567Z,3.62
2023-05-09T05:53:37.829Z,4.35
2023-05-09T05:57:54.111Z,3.78
2023-05-09T06:02:10.682Z,4.12
2023-05-09T06:06:28.317Z,3.60
2023-05-09T06:10:44.828Z,4.07
2023-05-09T06:15:01.121Z,3.42
2023-05-09T06:19:17.403Z,3.30
2023-05-09T06:23:33.761Z,3.50
2023-05-09T06:27:50.107Z,4.20
2023-05-09T06:32:06.498Z,3.08
2023-05-09T06:36:22.890Z,3.33
2023-05-09T06:40:39.174Z,3.65
2023-05-09T06:44:55.627Z,5.50
2023-05-09T06:49:14.025Z,3.10
2023-05-09T06:53:30.522Z,3.87
2023-05-09T06:57:46.799Z,2.87
2023-05-09T07:02:03.191Z,2.95
2023-05-09T07:06:19.722Z,2.87
2023-05-09T07:10:36.332Z,2.90
2023-05-09T07:14:52.595Z,3.08
2023-05-09T07:19:09.034Z,3.12
2023-05-09T07:23:26.338Z,2.53
2023-05-09T07:27:42.653Z,2.90
2023-05-09T07:31:58.958Z,2.70
2023-05-09T07:36:17.156Z,2.72
2023-05-09T07:40:38.853Z,2.87
2023-05-09T07:44:55.337Z,2.47
2023-05-09T07:49:11.619Z,2.72
2023-05-09T07:53:28.857Z,2.70
2023-05-09T07:57:45.200Z,2.45
2023-05-09T08:02:01.601Z,2.87
2023-05-09T08:06:17.979Z,2.58
2023-05-09T08:10:34.336Z,2.50
2023-05-09T08:14:50.625Z,2.55
2023-05-09T08:19:06.895Z,2.65
2023-05-09T08:23:23.180Z,2.40
2023-05-09T08:27:39.525Z,2.10
2023-05-09T08:31:55.830Z,2.62
2023-05-09T08:36:12.205Z,2.35
2023-05-09T08:40:28.467Z,2.60
2023-05-09T08:44:44.785Z,2.28
2023-05-09T08:49:01.352Z,1.87
2023-05-09T08:53:17.709Z,3.37
2023-05-09T08:57:37.626Z,2.40
2023-05-09T09:01:55.124Z,2.92
2023-05-09T09:06:11.594Z,4.90
2023-05-09T09:10:29.882Z,3.25
2023-05-09T09:14:53.066Z,2.58
2023-05-09T09:19:13.209Z,2.42
2023-05-09T09:23:30.690Z,2.37
2023-05-09T09:27:47.012Z,5.10
2023-05-09T09:32:04.840Z,1.50
2023-05-09T09:36:32.627Z,1.50
2023-05-09T09:40:59.399Z,1.90
2023-05-09T09:45:20.356Z,2.47
2023-05-09T09:49:36.840Z,1.67
2023-05-09T09:53:53.206Z,4.50
2023-05-09T09:58:18.320Z,1.30
2023-05-09T10:02:34.743Z,1.65
2023-05-09T10:06:55.987Z,1.30
2023-05-09T10:11:12.663Z,1.90
2023-05-09T10:15:41.387Z,1.27
2023-05-09T10:20:06.734Z,1.15
2023-05-09T10:24:35.280Z,1.87
2023-05-09T10:28:53.640Z,1.98
2023-05-09T10:33:12.830Z,2.22
2023-05-09T10:37:30.951Z,1.60
2023-05-09T10:41:50.170Z,2.15
2023-05-09T10:46:07.097Z,1.42
2023-05-09T10:50:23.615Z,1.20
2023-05-09T10:54:39.913Z,3.90
2023-05-09T10:58:56.670Z,1.60
2023-05-09T11:03:13.022Z,1.75
2023-05-09T11:07:30.384Z,1.60
2023-05-09T11:11:58.094Z,1.25
2023-05-09T11:16:14.433Z,1.33
2023-05-09T11:20:33.765Z,0.93
2023-05-09T11:24:51.905Z,1.02
2023-05-09T11:29:10.418Z,1.10
2023-05-09T11:33:32.617Z,1.15
2023-05-09T11:37:53.247Z,1.00
2023-05-09T11:42:09.623Z,3.83
2023-05-09T11:46:27.265Z,1.35
2023-05-09T11:50:47.491Z,1.30
2023-05-09T11:55:03.934Z,1.15
2023-05-09T11:59:20.680Z,1.08
2023-05-09T12:03:42.605Z,4.45
2023-05-09T12:08:06.638Z,1.25
2023-05-09T12:12:23.031Z,0.90
2023-05-09T12:16:45.406Z,2.30
2023-05-09T12:21:02.056Z,1.20
2023-05-09T12:25:18.297Z,1.12
2023-05-09T12:29:35.290Z,1.90
2023-05-09T12:33:51.708Z,1.00
2023-05-09T12:38:07.980Z,3.30
2023-05-09T12:42:24.246Z,1.08
2023-05-09T12:46:40.554Z,2.03
2023-05-09T12:50:56.843Z,1.40
2023-05-09T12:55:14.450Z,1.30
2023-05-09T12:59:31.145Z,2.28
2023-05-09T13:04:06.207Z,1.50
2023-05-09T13:08:23.449Z,1.52
2023-05-09T13:12:40.816Z,1.30
2023-05-09T13:16:57.319Z,1.87
2023-05-09T13:21:13.634Z,1.20
2023-05-09T13:25:29.984Z,1.00
2023-05-09T13:29:46.271Z,1.15
2023-05-09T13:34:02.526Z,1.40
2023-05-09T13:38:18.781Z,1.10
2023-05-09T13:42:35.212Z,1.00
2023-05-09T13:46:51.663Z,1.00
2023-05-09T13:51:08.348Z,1.00
2023-05-09T13:55:26.230Z,1.05
2023-05-09T13:59:43.408Z,1.27
2023-05-09T14:03:59.817Z,1.00
2023-05-09T14:08:16.923Z,1.20
2023-05-09T14:12:33.130Z,1.23
2023-05-09T14:16:49.510Z,1.12
2023-05-09T14:21:06.775Z,1.00
2023-05-09T14:25:23.048Z,1.55
2023-05-09T14:29:41.380Z,1.40
2023-05-09T14:33:58.049Z,1.30
2023-05-09T14:38:14.487Z,1.10
2023-05-09T14:42:30.787Z,1.42
2023-05-09T14:46:47.173Z,1.37
2023-05-09T14:51:03.582Z,1.10
2023-05-09T14:55:20.367Z,1.60
2023-05-09T14:59:37.297Z,1.10
2023-05-09T15:03:53.776Z,1.45
2023-05-09T15:08:10.149Z,1.17
2023-05-09T15:12:26.429Z,2.55
2023-05-09T15:16:42.768Z,1.75
2023-05-09T15:20:59.254Z,2.05
2023-05-09T15:25:16.550Z,1.70
2023-05-09T15:29:32.833Z,1.48
2023-05-09T15:33:49.408Z,1.70
2023-05-09T15:38:05.776Z,2.50
2023-05-09T15:42:22.652Z,2.50
2023-05-09T15:46:39.123Z,1.90
2023-05-09T15:50:55.483Z,1.10
2023-05-09T15:55:13.262Z,1.80
2023-05-09T15:59:29.559Z,1.90
2023-05-09T16:03:46.127Z,1.40
2023-05-09T16:08:03.077Z,1.00
2023-05-09T16:12:19.537Z,1.40
2023-05-09T16:16:36.178Z,1.58
2023-05-09T16:20:52.624Z,1.30
2023-05-09T16:25:09.317Z,1.20
2023-05-09T16:29:25.909Z,1.52
2023-05-09T16:33:42.243Z,2.28
2023-05-09T16:37:58.582Z,1.62
2023-05-09T16:42:15.099Z,1.73
2023-05-09T16:46:31.784Z,1.90
2023-05-09T16:50:48.551Z,1.40
2023-05-09T16:55:05.188Z,1.73
2023-05-09T16:59:22.136Z,1.62
2023-05-09T17:03:38.431Z,1.90
2023-05-09T17:07:55.629Z,1.42
2023-05-09T17:12:17.839Z,1.48
2023-05-09T17:16:37.243Z,1.40
2023-05-09T17:20:54.582Z,1.20
2023-05-09T17:25:11.164Z,1.55
2023-05-09T17:29:31.553Z,1.80
2023-05-09T17:33:48.051Z,1.58
2023-05-09T17:38:05.029Z,1.70
2023-05-09T17:42:21.325Z,1.50
2023-05-09T17:46:37.807Z,1.67
2023-05-09T17:50:54.684Z,1.83
2023-05-09T17:55:11.799Z,1.67
2023-05-09T17:59:28.786Z,1.85
2023-05-09T18:03:45.174Z,1.70
2023-05-09T18:08:01.695Z,2.03
2023-05-09T18:12:18.070Z,1.90
2023-05-09T18:16:37.030Z,2.33
2023-05-09T18:20:53.626Z,2.30
2023-05-09T18:25:10.315Z,2.12
2023-05-09T18:29:26.655Z,1.90
2023-05-09T18:33:43.889Z,2.03
2023-05-09T18:38:00.289Z,2.00
2023-05-09T18:42:16.660Z,2.58
2023-05-09T18:46:34.018Z,2.58
2023-05-09T18:50:52.689Z,2.90
2023-05-09T18:55:11.884Z,2.60
2023-05-09T18:59:28.248Z,3.35
2023-05-09T19:03:54.246Z,2.80
2023-05-09T19:08:10.678Z,2.83
2023-05-09T19:12:27.385Z,2.55
2023-05-09T19:16:46.233Z,2.33
2023-05-09T19:29:53.557Z,2.33
2023-05-09T19:34:09.831Z,2.22
2023-05-09T19:38:26.204Z,2.47
2023-05-09T19:42:42.556Z,2.25
2023-05-09T19:46:58.766Z,2.05
2023-05-09T19:51:15.763Z,2.20
2023-05-09T19:55:32.056Z,2.00
2023-05-09T19:59:48.351Z,2.08
2023-05-09T20:04:04.819Z,2.53
2023-05-09T20:08:21.684Z,2.17
2023-05-09T20:12:37.849Z,1.92
2023-05-09T20:16:54.138Z,2.58
2023-05-09T20:21:10.900Z,2.60
2023-05-09T20:25:27.329Z,2.12
2023-05-09T20:29:43.499Z,2.40
2023-05-09T20:33:59.684Z,2.40
2023-05-09T20:38:16.109Z,2.30
2023-05-09T20:42:32.769Z,2.53
2023-05-09T20:46:50.737Z,2.42
2023-05-09T20:51:06.925Z,2.20
2023-05-09T20:55:23.340Z,2.75
2023-05-09T20:59:41.167Z,2.47
2023-05-09T21:03:57.491Z,2.90
2023-05-09T21:08:13.709Z,2.70
2023-05-09T21:12:30.742Z,2.90
2023-05-09T21:16:47.070Z,2.30
2023-05-09T21:21:06.930Z,2.72
2023-05-09T21:25:23.149Z,2.42
2023-05-09T21:29:39.414Z,2.25
2023-05-09T21:33:55.571Z,2.75
2023-05-09T21:38:12.265Z,2.72
2023-05-09T21:42:28.434Z,2.78
2023-05-09T21:46:46.552Z,2.67
2023-05-09T21:51:03.392Z,2.40
2023-05-09T21:55:19.594Z,2.78
2023-05-09T21:59:36.815Z,2.30
2023-05-09T22:03:53.266Z,2.42
2023-05-09T22:08:10.608Z,2.20
2023-05-09T22:12:26.980Z,2.75
2023-05-09T22:16:43.309Z,3.20
2023-05-09T22:20:59.664Z,2.37
2023-05-09T22:25:15.825Z,2.70
2023-05-09T22:29:34.314Z,2.55
2023-05-09T22:33:50.699Z,2.40
2023-05-09T22:38:06.929Z,2.92
2023-05-09T22:42:23.086Z,2.70
2023-05-09T22:46:39.481Z,2.55
2023-05-09T22:50:55.831Z,2.30
2023-05-09T22:55:12.278Z,2.50
2023-05-09T22:59:28.501Z,3.10
2023-05-09T23:03:44.852Z,2.78
2023-05-09T23:08:01.208Z,2.35
2023-05-09T23:12:17.750Z,3.20
2023-05-09T23:16:34.087Z,2.90
2023-05-09T23:20:50.871Z,2.53
2023-05-09T23:25:08.013Z,2.70
2023-05-09T23:29:25.396Z,2.40
2023-05-09T23:33:41.670Z,2.83
2023-05-09T23:37:58.065Z,2.80
2023-05-09T23:42:14.394Z,3.10
2023-05-09T23:46:31.047Z,2.80
2023-05-09T23:50:47.393Z,2.65
2023-05-09T23:55:03.762Z,2.67
2023-05-09T23:59:20.154Z,3.00
